地図

経路データ

SID SEASON NUMBER BASIN SUBBASIN NAME ISO_TIME NATURE LAT LON WMO_WIND WMO_PRES WMO_AGENCY TRACK_TYPE DIST2LAND LANDFALL IFLAG USA_AGENCY USA_ATCF_ID USA_LAT USA_LON USA_RECORD USA_STATUS USA_WIND USA_PRES USA_SSHS USA_R34_NE USA_R34_SE USA_R34_SW USA_R34_NW USA_R50_NE USA_R50_SE USA_R50_SW USA_R50_NW USA_R64_NE USA_R64_SE USA_R64_SW USA_R64_NW USA_POCI USA_ROCI USA_RMW USA_EYE TOKYO_LAT TOKYO_LON TOKYO_GRADE TOKYO_WIND TOKYO_PRES TOKYO_R50_DIR TOKYO_R50_LONG TOKYO_R50_SHORT TOKYO_R30_DIR TOKYO_R30_LONG TOKYO_R30_SHORT TOKYO_LAND CMA_LAT CMA_LON CMA_CAT CMA_WIND CMA_PRES HKO_LAT HKO_LON HKO_CAT HKO_WIND HKO_PRES NEWDELHI_LAT NEWDELHI_LON NEWDELHI_GRADE NEWDELHI_WIND NEWDELHI_PRES NEWDELHI_CI NEWDELHI_DP NEWDELHI_POCI REUNION_LAT REUNION_LON REUNION_TYPE REUNION_WIND REUNION_PRES REUNION_TNUM REUNION_CI REUNION_RMW REUNION_R34_NE REUNION_R34_SE REUNION_R34_SW REUNION_R34_NW REUNION_R50_NE REUNION_R50_SE REUNION_R50_SW REUNION_R50_NW REUNION_R64_NE REUNION_R64_SE REUNION_R64_SW REUNION_R64_NW BOM_LAT BOM_LON BOM_TYPE BOM_WIND BOM_PRES BOM_TNUM BOM_CI BOM_RMW BOM_R34_NE BOM_R34_SE BOM_R34_SW BOM_R34_NW BOM_R50_NE BOM_R50_SE BOM_R50_SW BOM_R50_NW BOM_R64_NE BOM_R64_SE BOM_R64_SW BOM_R64_NW BOM_ROCI BOM_POCI BOM_EYE BOM_POS_METHOD BOM_PRES_METHOD NADI_LAT NADI_LON NADI_CAT NADI_WIND NADI_PRES WELLINGTON_LAT WELLINGTON_LON WELLINGTON_WIND WELLINGTON_PRES DS824_LAT DS824_LON DS824_STAGE DS824_WIND DS824_PRES TD9636_LAT TD9636_LON TD9636_STAGE TD9636_WIND TD9636_PRES TD9635_LAT TD9635_LON TD9635_WIND TD9635_PRES TD9635_ROCI NEUMANN_LAT NEUMANN_LON NEUMANN_CLASS NEUMANN_WIND NEUMANN_PRES MLC_LAT MLC_LON MLC_CLASS MLC_WIND MLC_PRES USA_GUST BOM_GUST BOM_GUST_PER REUNION_GUST REUNION_GUST_PER USA_SEAHGT USA_SEARAD_NE USA_SEARAD_SE USA_SEARAD_SW USA_SEARAD_NW STORM_SPEED STORM_DIR
1998209N11335 1998 41 NA NA ALEX 1998-07-27 12:00:00 TS 11.3000 -25.4000 25 1009 hurdat_atl main 937 937 O_____________ hurdat_atl AL011998 11.3000 -25.4000 TD 25 1009 -1 18 282
1998209N11335 1998 41 NA NA ALEX 1998-07-27 15:00:00 TS 11.4880 -26.2824 main 1018 1018 P_____________ AL011998 11.4880 -26.2824 TD 25 1009 -1 18 283
1998209N11335 1998 41 NA NA ALEX 1998-07-27 18:00:00 TS 11.7000 -27.2000 25 1009 hurdat_atl main 1102 1102 O_____________ hurdat_atl AL011998 11.7000 -27.2000 TD 25 1009 -1 19 284
1998209N11335 1998 41 NA NA ALEX 1998-07-27 21:00:00 TS 11.9497 -28.1775 main 1200 1196 P_____________ AL011998 11.9497 -28.1775 TD 25 1009 -1 20 284
1998209N11335 1998 41 NA NA ALEX 1998-07-28 00:00:00 TS 12.2000 -29.2000 25 1009 hurdat_atl main 1296 1296 O_____________ hurdat_atl AL011998 12.2000 -29.2000 TD 25 1009 -1 21 283
1998209N11335 1998 41 NA NA ALEX 1998-07-28 03:00:00 TS 12.4148 -30.2501 main 1407 1407 P_____________ AL011998 12.4148 -30.2501 TD 25 1008 -1 21 281
1998209N11335 1998 41 NA NA ALEX 1998-07-28 06:00:00 TS 12.6000 -31.3000 25 1008 hurdat_atl main 1510 1510 O_____________ hurdat_atl AL011998 12.6000 -31.3000 TD 25 1008 -1 21 280
1998209N11335 1998 41 NA NA ALEX 1998-07-28 09:00:00 TS 12.7647 -32.3226 main 1613 1613 P_____________ AL011998 12.7647 -32.3226 TD 27 1007 -1 20 279
1998209N11335 1998 41 NA NA ALEX 1998-07-28 12:00:00 TS 12.9000 -33.3000 30 1007 hurdat_atl main 1718 1718 O_____________ hurdat_atl AL011998 12.9000 -33.3000 TD 30 1007 -1 19 277
1998209N11335 1998 41 NA NA ALEX 1998-07-28 15:00:00 TS 13.0071 -34.2226 main 1813 1813 P_____________ AL011998 13.0071 -34.2226 TD 30 1006 -1 18 277
1998209N11335 1998 41 NA NA ALEX 1998-07-28 18:00:00 TS 13.1000 -35.1000 30 1006 hurdat_atl main 1866 1854 O_____________ hurdat_atl AL011998 13.1000 -35.1000 TD 30 1006 -1 17 277
1998209N11335 1998 41 NA NA ALEX 1998-07-28 21:00:00 TS 13.1996 -35.9576 main 1852 1842 P_____________ AL011998 13.1996 -35.9576 TD 32 1005 -1 17 277
1998209N11335 1998 41 NA NA ALEX 1998-07-29 00:00:00 TS 13.3000 -36.8000 35 1005 hurdat_atl main 1845 1817 O_____________ hurdat_atl AL011998 13.3000 -36.8000 TS 35 1005 0 17 277
1998209N11335 1998 41 NA NA ALEX 1998-07-29 03:00:00 TS 13.3999 -37.6650 main 1808 1742 P_____________ AL011998 13.3999 -37.6650 TS 35 1005 0 17 277
1998209N11335 1998 41 NA NA ALEX 1998-07-29 06:00:00 TS 13.5000 -38.5000 35 1005 hurdat_atl main 1742 1688 O_____________ hurdat_atl AL011998 13.5000 -38.5000 TS 35 1005 0 16 277
1998209N11335 1998 41 NA NA ALEX 1998-07-29 09:00:00 TS 13.5998 -39.2800 main 1679 1627 P_____________ AL011998 13.5998 -39.2800 TS 35 1005 0 15 278
1998209N11335 1998 41 NA NA ALEX 1998-07-29 12:00:00 TS 13.7000 -40.0000 35 1005 hurdat_atl main 1627 1584 O_____________ hurdat_atl AL011998 13.7000 -40.0000 TS 35 1005 0 14 278
1998209N11335 1998 41 NA NA ALEX 1998-07-29 15:00:00 TS 13.7922 -40.6651 main 1576 1536 P_____________ AL011998 13.7922 -40.6651 TS 35 1005 0 13 279
1998209N11335 1998 41 NA NA ALEX 1998-07-29 18:00:00 TS 13.9000 -41.3000 35 1005 hurdat_atl main 1536 1498 O_____________ hurdat_atl AL011998 13.9000 -41.3000 TS 35 1005 0 13 282
1998209N11335 1998 41 NA NA ALEX 1998-07-29 21:00:00 TS 14.0498 -41.9500 main 1498 1463 P_____________ AL011998 14.0498 -41.9500 TS 35 1005 0 13 283
1998209N11335 1998 41 NA NA ALEX 1998-07-30 00:00:00 TS 14.2000 -42.6000 35 1005 hurdat_atl main 1463 1429 O_____________ hurdat_atl AL011998 14.2000 -42.6000 TS 35 1005 0 13 281
1998209N11335 1998 41 NA NA ALEX 1998-07-30 03:00:00 TS 14.2999 -43.2652 main 1422 1392 P_____________ AL011998 14.2999 -43.2652 TS 37 1004 0 13 279
1998209N11335 1998 41 NA NA ALEX 1998-07-30 06:00:00 TS 14.4000 -43.9000 40 1003 hurdat_atl main 1392 1370 O_____________ hurdat_atl AL011998 14.4000 -43.9000 TS 40 1003 0 12 281
1998209N11335 1998 41 NA NA ALEX 1998-07-30 09:00:00 TS 14.5348 -44.4651 main 1364 1350 P_____________ AL011998 14.5348 -44.4651 TS 40 1003 0 11 286
1998209N11335 1998 41 NA NA ALEX 1998-07-30 12:00:00 TS 14.7000 -45.0000 40 1003 hurdat_atl main 1350 1333 O_____________ hurdat_atl AL011998 14.7000 -45.0000 TS 40 1003 0 11 289
1998209N11335 1998 41 NA NA ALEX 1998-07-30 15:00:00 TS 14.8999 -45.5575 main 1329 1313 P_____________ AL011998 14.8999 -45.5575 TS 42 1003 0 11 291
1998209N11335 1998 41 NA NA ALEX 1998-07-30 18:00:00 TS 15.1000 -46.1000 45 1003 hurdat_atl main 1317 1298 O_____________ hurdat_atl AL011998 15.1000 -46.1000 TS 45 1003 0 11 290
1998209N11335 1998 41 NA NA ALEX 1998-07-30 21:00:00 TS 15.2648 -46.6076 main 1307 1291 P_____________ AL011998 15.2648 -46.6076 TS 45 1002 0 10 287
1998209N11335 1998 41 NA NA ALEX 1998-07-31 00:00:00 TS 15.4000 -47.1000 45 1002 hurdat_atl main 1291 1275 O_____________ hurdat_atl AL011998 15.4000 -47.1000 TS 45 1002 0 10 285
1998209N11335 1998 41 NA NA ALEX 1998-07-31 03:00:00 TS 15.5148 -47.5926 main 1275 1262 P_____________ AL011998 15.5148 -47.5926 TS 45 1002 0 10 282
1998209N11335 1998 41 NA NA ALEX 1998-07-31 06:00:00 TS 15.6000 -48.1000 45 1003 hurdat_atl main 1262 1245 O_____________ hurdat_atl AL011998 15.6000 -48.1000 TS 45 1003 0 10 278
1998209N11335 1998 41 NA NA ALEX 1998-07-31 09:00:00 TS 15.6574 -48.6351 main 1251 1225 P_____________ AL011998 15.6574 -48.6351 TS 45 1003 0 11 275
1998209N11335 1998 41 NA NA ALEX 1998-07-31 12:00:00 TS 15.7000 -49.2000 45 1003 hurdat_atl main 1225 1198 O_____________ hurdat_atl AL011998 15.7000 -49.2000 TS 45 1003 0 11 275
1998209N11335 1998 41 NA NA ALEX 1998-07-31 15:00:00 TS 15.7498 -49.7850 main 1198 1183 P_____________ AL011998 15.7498 -49.7850 TS 42 1004 0 12 275
1998209N11335 1998 41 NA NA ALEX 1998-07-31 18:00:00 TS 15.8000 -50.4000 40 1005 hurdat_atl main 1183 1162 O_____________ hurdat_atl AL011998 15.8000 -50.4000 TS 40 1005 0 12 274
1998209N11335 1998 41 NA NA ALEX 1998-07-31 21:00:00 TS 15.8273 -51.0353 main 1162 1152 P_____________ AL011998 15.8273 -51.0353 TS 37 1006 0 13 275
1998209N11335 1998 41 NA NA ALEX 1998-08-01 00:00:00 TS 15.9000 -51.7000 35 1007 hurdat_atl main 1152 1109 O_____________ hurdat_atl AL011998 15.9000 -51.7000 TS 35 1007 0 13 280
1998209N11335 1998 41 NA NA ALEX 1998-08-01 03:00:00 TS 16.0625 -52.4075 main 1109 1059 P_____________ AL011998 16.0625 -52.4075 TS 35 1008 0 14 287
1998209N11335 1998 41 NA NA ALEX 1998-08-01 06:00:00 TS 16.3000 -53.1000 35 1009 hurdat_atl main 1059 1021 O_____________ hurdat_atl AL011998 16.3000 -53.1000 TS 35 1009 0 14 292
1998209N11335 1998 41 NA NA ALEX 1998-08-01 09:00:00 TS 16.5698 -53.7227 main 1028 1002 P_____________ AL011998 16.5698 -53.7227 TS 37 1009 0 13 298
1998209N11335 1998 41 NA NA ALEX 1998-08-01 12:00:00 TS 16.9000 -54.3000 40 1009 hurdat_atl main 1002 988 O_____________ hurdat_atl AL011998 16.9000 -54.3000 TS 40 1009 0 13 304
1998209N11335 1998 41 NA NA ALEX 1998-08-01 15:00:00 TS 17.2923 -54.8576 main 989 985 P_____________ AL011998 17.2923 -54.8576 TS 40 1010 0 13 307
1998209N11335 1998 41 NA NA ALEX 1998-08-01 18:00:00 TS 17.7000 -55.4000 40 1012 hurdat_atl main 989 981 O_____________ hurdat_atl AL011998 17.7000 -55.4000 TS 40 1012 0 13 307
1998209N11335 1998 41 NA NA ALEX 1998-08-01 21:00:00 TS 18.0648 -55.9428 main 993 960 P_____________ AL011998 18.0648 -55.9428 TS 37 1012 0 13 304
1998209N11335 1998 41 NA NA ALEX 1998-08-02 00:00:00 TS 18.4000 -56.5000 35 1012 hurdat_atl main 960 896 O_____________ hurdat_atl AL011998 18.4000 -56.5000 TS 35 1012 0 13 299
1998209N11335 1998 41 NA NA ALEX 1998-08-02 03:00:00 TS 18.6851 -57.1153 main 896 834 P_____________ AL011998 18.6851 -57.1153 TS 35 1012 0 13 298
1998209N11335 1998 41 NA NA ALEX 1998-08-02 06:00:00 TS 19.0000 -57.7000 35 1012 hurdat_atl main 834 786 O_____________ hurdat_atl AL011998 19.0000 -57.7000 TS 35 1012 0 13 306
1998209N11335 1998 41 NA NA ALEX 1998-08-02 09:00:00 TS 19.4123 -58.1877 main 786 751 P_____________ AL011998 19.4123 -58.1877 TS 35 1012 0 12 317
1998209N11335 1998 41 NA NA ALEX 1998-08-02 12:00:00 TS 19.9000 -58.6000 35 1012 hurdat_atl main 754 734 O_____________ hurdat_atl AL011998 19.9000 -58.6000 TS 35 1012 0 13 325
1998209N11335 1998 41 NA NA ALEX 1998-08-02 15:00:00 TS 20.4376 -58.9620 main 727 716 P_____________ AL011998 20.4376 -58.9620 TS 32 1013 -1 13 329
1998209N11335 1998 41 NA NA ALEX 1998-08-02 18:00:00 TS 21.0000 -59.3000 30 1014 hurdat_atl main 720 O_____________ hurdat_atl AL011998 21.0000 -59.3000 TD 30 1014 -1 13 331

IBTrACS Databaseについて

本データベースは、米国NOAAが公開する1842年以降の世界の熱帯低気圧のベストトラックデータアーカイブInternational Best Track Archive for Climate Stewardship (IBTrACS)を、ウェブで閲覧しやすい形式に変換したものです。

最終更新日:2021-10-27